METAR stanice u blizini

 

LYBE - Beograd / Surčin, Srbija
Ažurirano: 18/10/2018 21:30
Vedro
Vedro
 Pravac vetra SSI
Vetar: SSI 6 km/h
Temperatura: 16°C
Tačka rose: 9°C
Vlažnost: 63%
Pritisak: 1017 hPa
Pregled: Vedro
Vidljivost: greater than 10 km
2018/10/18 19:30 LYBE 181930Z 03003KT CAVOK 16/09 Q1017 NOSIG
LYBT - Beograd / Batajnica, Srbija
Ažurirano: 18/10/2018 21:30
Vedro
Vedro
 Pravac vetra SSI
Vetar: SSI 7 km/h
Temperatura: 14°C
Tačka rose: 9°C
Vlažnost: 72%
Pritisak: 1017 hPa
Pregled: Vedro
Vidljivost: greater than 10 km
2018/10/18 19:30 LYBT 181930Z 02004KT CAVOK 14/09 Q1017 NOSIG
LYVR - Vršac, Srbija
Ažurirano: 18/10/2018 21:30
Vedro
Vedro
 Pravac vetra varies
Vetar: varies 4 km/h
Temperatura: 16°C
Tačka rose: 8°C
Vlažnost: 59%
Pritisak: 1017 hPa
Pregled: Vedro
Vidljivost: greater than 10 km
2018/10/18 19:30 LYVR 181930Z VRB02KT CAVOK 16/08 Q1017 NOSIG
 
LYKV - Lađevci, Srbija
Ažurirano: 18/10/2018 21:30
Vedro
Vedro
 Pravac vetra varies
Vetar: varies 4 km/h
Temperatura: 13°C
Tačka rose: 11°C
Vlažnost: 88%
Pritisak: 1017 hPa
Pregled: Vedro
Vidljivost: greater than 10 km
2018/10/18 19:30 LYKV 181930Z VRB02KT CAVOK 13/11 Q1017 NOSIG
LYNI - Niš, Srbija
Ažurirano: 18/10/2018 21:30
Vedro
Vedro
 Pravac vetra varies
Vetar: varies 4 km/h
Temperatura: 15°C
Tačka rose: 9°C
Vlažnost: 68%
Pritisak: 1017 hPa
Pregled: Vedro
Vidljivost: greater than 10 km
2018/10/18 19:30 LYNI 181930Z VRB02KT CAVOK 15/09 Q1017 NOSIG
BKPR - Priština, Srbija
Ažurirano: 18/10/2018 22:00
Vedro
Vedro
 Pravac vetra varies
Vetar: varies 2 km/h
Temperatura: 14°C
Tačka rose: 5°C
Vlažnost: 55%
Pritisak: 1017 hPa
Pregled: Vedro
Vidljivost: greater than 10 km
2018/10/18 20:00 BKPR 182000Z VRB01KT CAVOK 14/05 Q1017 NOSIG
 
LHPP - Pecs / Pogany, Hungary
Ažurirano: 18/10/2018 18:45
NOT Current
Vedro
Vedro
 Pravac vetra S
Vetar: S 7 km/h
Temperatura: 17°C
Tačka rose: 8°C
Vlažnost: 56%
Pritisak: 1018 hPa
Pregled: Vedro
Vidljivost: greater than 10 km
2018/10/18 16:45 LHPP 181645Z 01004KT CAVOK 17/08 Q1018
LHUD - Szeged, Hungary
Ažurirano: 18/10/2018 21:15
Slaba kiša, Delimično oblačno
Slaba kiša, Delimično oblačno
 Pravac vetra SI
Vetar: SI 7 km/h
Temperatura: 17°C
Tačka rose: 7°C
Vlažnost: 52%
Pritisak: 1019 hPa
Pregled: Light Rain
Oblaci: Partly Cloudy
Vidljivost: 10 km
2018/10/18 19:15 LHUD 181915Z 04004KT 9999 -RA NSC 17/07 Q1019
LRTR - Timisoara, Romania
Ažurirano: 18/10/2018 21:30
Vedro
Vedro
 Pravac vetra SSI
Vetar: SSI 15 km/h
Temperatura: 18°C
Tačka rose: 6°C
Vlažnost: 46%
Pritisak: 1017 hPa
Pregled: Vedro
Vidljivost: greater than 10 km
2018/10/18 19:30 LRTR 181930Z 02008KT CAVOK 18/06 Q1017
 
LRCV - Craiova, Romania
Ažurirano: 18/10/2018 21:30
Partly Cloudy
Partly Cloudy
 Pravac vetra ISI
Vetar: ISI 4 km/h
Temperatura: 13°C
Tačka rose: 9°C
Vlažnost: 77%
Pritisak: 1018 hPa
Oblaci: Partly Cloudy
Vidljivost: 9 km
Cloud details: Partly Cloudy 3658 m
2018/10/18 19:30 LRCV 181930Z AUTO 06002KT 9000 SCT120/// 13/09 Q1018
LBSF - Sofia, Bulgaria
Ažurirano: 18/10/2018 21:30
Vedro
Vedro
 Pravac vetra I
Vetar: I 13 km/h
Temperatura: 14°C
Tačka rose: 8°C
Vlažnost: 67%
Pritisak: 1018 hPa
Pregled: Vedro
Vidljivost: greater than 10 km
2018/10/18 19:30 LBSF 181930Z 09007KT CAVOK 14/08 Q1018 NOSIG
LWSK - Skoplje, Makedonija
Ažurirano: 18/10/2018 22:00
Vedro
Vedro
 Pravac vetra SI
Vetar: SI 4 km/h
Temperatura: 13°C
Tačka rose: 7°C
Vlažnost: 67%
Pritisak: 1017 hPa
Pregled: Vedro
Vidljivost: greater than 10 km
2018/10/18 20:00 LWSK 182000Z 04002KT CAVOK 13/07 Q1017 NOSIG
 
LYPG - Podgorica, Crna Gora
Ažurirano: 18/10/2018 21:30
Few Clouds
Few Clouds
 Pravac vetra SSZ
Vetar: SSZ 6 km/h
Temperatura: 17°C
Tačka rose: 9°C
Vlažnost: 59%
Pritisak: 1014 hPa
Oblaci: Few Clouds
Vidljivost: 10 km
Cloud details: Few Clouds 3048 m
2018/10/18 19:30 LYPG 181930Z 33003KT 9999 FEW100 17/09 Q1014 NOSIG
LQSA - Sarajevo, Bosna i Hercegovina
Ažurirano: 18/10/2018 21:30
Vedro
Vedro
 Pravac vetra JI
Vetar: JI 4 km/h
Temperatura: 11°C
Tačka rose: 10°C
Vlažnost: 94%
Pritisak: 1018 hPa
Pregled: Vedro
Vidljivost: greater than 10 km
2018/10/18 19:30 LQSA 181930Z 13002KT CAVOK 11/10 Q1018 NOSIG
LDOS - Osijek, Hrvatksa
Ažurirano: 18/10/2018 21:30
Vedro
Vedro
 Pravac vetra SSI
Vetar: SSI 7 km/h
Temperatura: 15°C
Tačka rose: 9°C
Vlažnost: 68%
Pritisak: 1017 hPa
Pregled: Vedro
Vidljivost: greater than 10 km
2018/10/18 19:30 LDOS 181930Z 02004KT CAVOK 15/09 Q1017